^^
Grace C. Lehan Memorial Weather Station Historical Data
Daily Summary for October 20, 2021 Units:  Both    English   Metric
Daily Weekly Monthly Yearly
  High: Low: Average:
Temperature: 76.1 °F /  24.5 °C 50.4 °F /  10.2 °C 63.3 °F /  17.4 °C
Dew Point: 56.8 °F /  13.8 °C 43.6 °F /  6.4 °C 51.1 °F /  10.6 °C
Humidity: 79.4% 47.3% 65%
Wind Speed: 5.6mph /  9km/h - 1.6mph /  2.6km/h
Wind Gust: 16mph /  25.7km/h - -
Wind- - West
Pressure: 29.96 in /  1014.4 hPa 29.84 in /  1010.4 hPa -
Precipitation: 0.00 in /  0 mm    
 
 
Tabular Data for October 20, 2021
Time Temperature Dew Point Pressure Wind Wind Speed Wind Gust Humidity Rainfall Rate (Hourly) solar
00:00 50.7 °F /  10.4 °C 44.4 °F /  6.9 °C 29.85in /  1010.7hPa Calm     79% 0.00in /  0mm 0 W/m2
00:09 50.5 °F /  10.3 °C 44.4 °F /  6.9 °C 29.84in /  1010.4hPa Calm   1mph /  1.6km/h 79.4% 0.00in /  0mm 0 W/m2
00:14 50.4 °F /  10.2 °C 44.1 °F /  6.7 °C 29.84in /  1010.4hPa Calm   1mph /  1.6km/h 78.7% 0.00in /  0mm 0 W/m2
00:19 50.5 °F /  10.3 °C 43.8 °F /  6.6 °C 29.84in /  1010.4hPa Calm   1mph /  1.6km/h 77.7% 0.00in /  0mm 0 W/m2
00:24 50.6 °F /  10.3 °C 43.6 °F /  6.4 °C 29.84in /  1010.4hPa Calm   1mph /  1.6km/h 77% 0.00in /  0mm 0 W/m2
00:29 50.8 °F /  10.4 °C 43.7 °F /  6.5 °C 29.84in /  1010.4hPa WSW 0.2mph /  0.3km/h 2mph /  3.2km/h 76.4% 0.00in /  0mm 0 W/m2
00:34 51.1 °F /  10.6 °C 43.7 °F /  6.5 °C 29.84in /  1010.4hPa WSW 0.3mph /  0.5km/h 3mph /  4.8km/h 75.8% 0.00in /  0mm 0 W/m2
00:39 51.5 °F /  10.8 °C 43.7 °F /  6.5 °C 29.84in /  1010.4hPa SW 0.8mph /  1.3km/h 4mph /  6.4km/h 74.6% 0.00in /  0mm 0 W/m2
00:44 51.9 °F /  11.1 °C 43.8 °F /  6.6 °C 29.84in /  1010.4hPa WSW 0.2mph /  0.3km/h 4mph /  6.4km/h 73.7% 0.00in /  0mm 0 W/m2
00:49 52.4 °F /  11.3 °C 43.9 °F /  6.6 °C 29.84in /  1010.4hPa West 0.7mph /  1.1km/h 6mph /  9.7km/h 72.7% 0.00in /  0mm 0 W/m2
00:54 52.8 °F /  11.6 °C 43.9 °F /  6.6 °C 29.85in /  1010.7hPa West 0.6mph /  1km/h 7mph /  11.3km/h 71.6% 0.00in /  0mm 0 W/m2
00:59 53.2 °F /  11.8 °C 44.1 °F /  6.7 °C 29.84in /  1010.4hPa West 0.2mph /  0.3km/h 7mph /  11.3km/h 71% 0.00in /  0mm 0 W/m2
01:04 53.6 °F /  12 °C 44.1 °F /  6.7 °C 29.84in /  1010.4hPa West 1mph /  1.6km/h 7mph /  11.3km/h 70.1% 0.00in /  0mm 0 W/m2
01:09 54 °F /  12.2 °C 44.2 °F /  6.8 °C 29.84in /  1010.4hPa WSW 0.3mph /  0.5km/h 7mph /  11.3km/h 69.5% 0.00in /  0mm 0 W/m2
01:14 54.2 °F /  12.3 °C 44.3 °F /  6.8 °C 29.84in /  1010.4hPa WSW 0.5mph /  0.8km/h 7mph /  11.3km/h 69% 0.00in /  0mm 0 W/m2
01:19 54.5 °F /  12.5 °C 44.3 °F /  6.8 °C 29.84in /  1010.4hPa WSW 0.6mph /  1km/h 7mph /  11.3km/h 68.3% 0.00in /  0mm 0 W/m2
01:24 54.7 °F /  12.6 °C 44.4 °F /  6.9 °C 29.84in /  1010.4hPa WSW 0.4mph /  0.6km/h 7mph /  11.3km/h 68% 0.00in /  0mm 0 W/m2
01:29 54.9 °F /  12.7 °C 44.4 °F /  6.9 °C 29.84in /  1010.4hPa WSW 0.6mph /  1km/h 7mph /  11.3km/h 67.4% 0.00in /  0mm 0 W/m2
01:34 55.1 °F /  12.8 °C 44.4 °F /  6.9 °C 29.84in /  1010.4hPa WSW 0.3mph /  0.5km/h 7mph /  11.3km/h 67.3% 0.00in /  0mm 0 W/m2
01:39 55.1 °F /  12.8 °C 44.4 °F /  6.9 °C 29.84in /  1010.4hPa WSW 0.7mph /  1.1km/h 6mph /  9.7km/h 67% 0.00in /  0mm 0 W/m2
01:44 55.3 °F /  12.9 °C 44.5 °F /  6.9 °C 29.85in /  1010.7hPa WSW 0.3mph /  0.5km/h 6mph /  9.7km/h 67% 0.00in /  0mm 0 W/m2
01:49 55.3 °F /  12.9 °C 44.5 °F /  6.9 °C 29.85in /  1010.7hPa Calm   6mph /  9.7km/h 67% 0.00in /  0mm 0 W/m2
01:54 55.3 °F /  12.9 °C 44.5 °F /  6.9 °C 29.85in /  1010.7hPa Calm   6mph /  9.7km/h 67% 0.00in /  0mm 0 W/m2
01:59 55.2 °F /  12.9 °C 44.4 °F /  6.9 °C 29.85in /  1010.7hPa Calm   6mph /  9.7km/h 67% 0.00in /  0mm 0 W/m2
02:04 55.1 °F /  12.8 °C 44.4 °F /  6.9 °C 29.85in /  1010.7hPa WSW 0.1mph /  0.2km/h 6mph /  9.7km/h 67.1% 0.00in /  0mm 0 W/m2
02:09 55 °F /  12.8 °C 44.6 °F /  7 °C 29.85in /  1010.7hPa WSW 0.2mph /  0.3km/h 2mph /  3.2km/h 68% 0.00in /  0mm 0 W/m2
02:14 54.8 °F /  12.7 °C 44.5 °F /  6.9 °C 29.85in /  1010.7hPa WSW 0.3mph /  0.5km/h 3mph /  4.8km/h 68.1% 0.00in /  0mm 0 W/m2
02:19 54.6 °F /  12.6 °C 44.7 °F /  7.1 °C 29.85in /  1010.7hPa WSW 0.8mph /  1.3km/h 6mph /  9.7km/h 69% 0.00in /  0mm 0 W/m2
02:24 54.5 °F /  12.5 °C 44.5 °F /  6.9 °C 29.85in /  1010.7hPa WSW 1.2mph /  1.9km/h 6mph /  9.7km/h 69% 0.00in /  0mm 0 W/m2
02:29 54.4 °F /  12.4 °C 44.6 °F /  7 °C 29.85in /  1010.7hPa WSW 1.6mph /  2.6km/h 6mph /  9.7km/h 69.3% 0.00in /  0mm 0 W/m2
02:34 54.3 °F /  12.4 °C 44.8 °F /  7.1 °C 29.85in /  1010.7hPa WSW 0.9mph /  1.4km/h 6mph /  9.7km/h 70% 0.00in /  0mm 0 W/m2
02:39 54.3 °F /  12.4 °C 44.7 °F /  7.1 °C 29.85in /  1010.7hPa WSW 1.2mph /  1.9km/h 5mph /  8km/h 70% 0.00in /  0mm 0 W/m2
02:44 54.3 °F /  12.4 °C 44.7 °F /  7.1 °C 29.85in /  1010.7hPa SW 1.9mph /  3.1km/h 6mph /  9.7km/h 70% 0.00in /  0mm 0 W/m2
02:49 54.2 °F /  12.3 °C 44.6 °F /  7 °C 29.85in /  1010.7hPa WSW 1.7mph /  2.7km/h 6mph /  9.7km/h 70% 0.00in /  0mm 0 W/m2
02:54 54.2 °F /  12.3 °C 44.8 °F /  7.1 °C 29.85in /  1010.7hPa WSW 2.6mph /  4.2km/h 7mph /  11.3km/h 70.5% 0.00in /  0mm 0 W/m2
02:59 54.2 °F /  12.3 °C 45 °F /  7.2 °C 29.84in /  1010.4hPa WSW 2.4mph /  3.9km/h 7mph /  11.3km/h 71% 0.00in /  0mm 0 W/m2
03:04 54.2 °F /  12.3 °C 45 °F /  7.2 °C 29.84in /  1010.4hPa WSW 2.7mph /  4.3km/h 7mph /  11.3km/h 71% 0.00in /  0mm 0 W/m2
03:09 54.2 °F /  12.3 °C 45 °F /  7.2 °C 29.84in /  1010.4hPa WSW 2.6mph /  4.2km/h 9mph /  14.5km/h 71% 0.00in /  0mm 0 W/m2
03:14 54.3 °F /  12.4 °C 45.1 °F /  7.3 °C 29.84in /  1010.4hPa WSW 3.1mph /  5km/h 11mph /  17.7km/h 71% 0.00in /  0mm 0 W/m2
03:19 54.4 °F /  12.4 °C 45.2 °F /  7.3 °C 29.84in /  1010.4hPa WSW 3.3mph /  5.3km/h 11mph /  17.7km/h 71% 0.00in /  0mm 0 W/m2
03:24 54.3 °F /  12.4 °C 45.2 °F /  7.3 °C 29.84in /  1010.4hPa WSW 2.3mph /  3.7km/h 11mph /  17.7km/h 71% 0.00in /  0mm 0 W/m2
03:29 54.3 °F /  12.4 °C 45.1 °F /  7.3 °C 29.84in /  1010.4hPa WSW 3.9mph /  6.3km/h 11mph /  17.7km/h 71% 0.00in /  0mm 0 W/m2
03:34 54.3 °F /  12.4 °C 45.1 °F /  7.3 °C 29.84in /  1010.4hPa WSW 3.3mph /  5.3km/h 12mph /  19.3km/h 71% 0.00in /  0mm 0 W/m2
03:39 54.2 °F /  12.3 °C 45 °F /  7.2 °C 29.85in /  1010.7hPa West 3.1mph /  5km/h 12mph /  19.3km/h 71% 0.00in /  0mm 0 W/m2
03:44 54.2 °F /  12.3 °C 45.4 °F /  7.4 °C 29.85in /  1010.7hPa WSW 2.1mph /  3.4km/h 12mph /  19.3km/h 72% 0.00in /  0mm 0 W/m2
03:49 54.2 °F /  12.3 °C 45.4 °F /  7.4 °C 29.85in /  1010.7hPa WSW 3.1mph /  5km/h 12mph /  19.3km/h 72% 0.00in /  0mm 0 W/m2
03:54 54.1 °F /  12.3 °C 45.4 °F /  7.4 °C 29.85in /  1010.7hPa WSW 3.4mph /  5.5km/h 12mph /  19.3km/h 72.3% 0.00in /  0mm 0 W/m2
03:59 54.1 °F /  12.3 °C 45.5 °F /  7.5 °C 29.85in /  1010.7hPa WSW 3.7mph /  6km/h 12mph /  19.3km/h 72.5% 0.00in /  0mm 0 W/m2
04:00 54.1 °F /  12.3 °C 45.7 °F /  7.6 °C 29.85in /  1010.7hPa Calm   12mph /  19.3km/h 73% 0.00in /  0mm 0 W/m2
04:09 54 °F /  12.2 °C 45.5 °F /  7.5 °C 29.85in /  1010.7hPa WSW 1.8mph /  2.9km/h 5mph /  8km/h 73% 0.00in /  0mm 0 W/m2
04:14 53.9 °F /  12.2 °C 45.5 °F /  7.5 °C 29.85in /  1010.7hPa WSW 1.9mph /  3.1km/h 6mph /  9.7km/h 73.1% 0.00in /  0mm 0 W/m2
04:19 53.8 °F /  12.1 °C 45.8 °F /  7.7 °C 29.85in /  1010.7hPa WSW 2.5mph /  4km/h 7mph /  11.3km/h 74% 0.00in /  0mm 0 W/m2
04:24 53.8 °F /  12.1 °C 45.7 °F /  7.6 °C 29.85in /  1010.7hPa WSW 3.4mph /  5.5km/h 9mph /  14.5km/h 74% 0.00in /  0mm 0 W/m2
04:29 53.9 °F /  12.2 °C 45.8 °F /  7.7 °C 29.86in /  1011.1hPa WSW 2.4mph /  3.9km/h 9mph /  14.5km/h 74% 0.00in /  0mm 0 W/m2
04:34 53.9 °F /  12.2 °C 45.9 °F /  7.7 °C 29.86in /  1011.1hPa WSW 3mph /  4.8km/h 11mph /  17.7km/h 74% 0.00in /  0mm 0 W/m2
04:39 54 °F /  12.2 °C 45.9 °F /  7.7 °C 29.86in /  1011.1hPa WSW 3.4mph /  5.5km/h 11mph /  17.7km/h 74% 0.00in /  0mm 0 W/m2
04:44 54.1 °F /  12.3 °C 46 °F /  7.8 °C 29.86in /  1011.1hPa SW 2.1mph /  3.4km/h 11mph /  17.7km/h 74% 0.00in /  0mm 0 W/m2
04:49 54.2 °F /  12.3 °C 46.1 °F /  7.8 °C 29.86in /  1011.1hPa WSW 2.7mph /  4.3km/h 11mph /  17.7km/h 74% 0.00in /  0mm 0 W/m2
04:54 54.2 °F /  12.3 °C 46.1 °F /  7.8 °C 29.86in /  1011.1hPa WSW 3.7mph /  6km/h 11mph /  17.7km/h 74% 0.00in /  0mm 0 W/m2
04:59 54.2 °F /  12.3 °C 46.1 °F /  7.8 °C 29.86in /  1011.1hPa WSW 3.9mph /  6.3km/h 13mph /  20.9km/h 74% 0.00in /  0mm 0 W/m2
05:04 54.3 °F /  12.4 °C 46.2 °F /  7.9 °C 29.86in /  1011.1hPa WSW 4.3mph /  6.9km/h 13mph /  20.9km/h 74% 0.00in /  0mm 0 W/m2
05:09 54.4 °F /  12.4 °C 46.3 °F /  7.9 °C 29.86in /  1011.1hPa WSW 4mph /  6.4km/h 14mph /  22.5km/h 74% 0.00in /  0mm 0 W/m2
05:14 54.5 °F /  12.5 °C 46.7 °F /  8.2 °C 29.87in /  1011.4hPa WSW 3.7mph /  6km/h 14mph /  22.5km/h 75% 0.00in /  0mm 0 W/m2
05:19 54.5 °F /  12.5 °C 46.9 °F /  8.3 °C 29.87in /  1011.4hPa West 3.9mph /  6.3km/h 16mph /  25.7km/h 75.5% 0.00in /  0mm 0 W/m2
05:24 54.5 °F /  12.5 °C 46.5 °F /  8.1 °C 29.87in /  1011.4hPa WSW 3.1mph /  5km/h 16mph /  25.7km/h 74.4% 0.00in /  0mm 0 W/m2
05:29 54.5 °F /  12.5 °C 46.4 °F /  8 °C 29.87in /  1011.4hPa WSW 3.9mph /  6.3km/h 16mph /  25.7km/h 74% 0.00in /  0mm 0 W/m2
05:34 54.5 °F /  12.5 °C 46.4 °F /  8 °C 29.86in /  1011.1hPa WSW 3.3mph /  5.3km/h 16mph /  25.7km/h 74% 0.00in /  0mm 0 W/m2
05:39 54.4 °F /  12.4 °C 46.5 °F /  8.1 °C 29.86in /  1011.1hPa WSW 4.6mph /  7.4km/h 16mph /  25.7km/h 74.5% 0.00in /  0mm 0 W/m2
05:44 54.5 °F /  12.5 °C 46.7 °F /  8.2 °C 29.87in /  1011.4hPa WSW 4.7mph /  7.6km/h 16mph /  25.7km/h 75% 0.00in /  0mm 0 W/m2
05:49 54.5 °F /  12.5 °C 46.8 °F /  8.2 °C 29.87in /  1011.4hPa WSW 4.3mph /  6.9km/h 16mph /  25.7km/h 75% 0.00in /  0mm 0 W/m2
05:54 54.6 °F /  12.6 °C 46.7 °F /  8.2 °C 29.87in /  1011.4hPa WSW 4mph /  6.4km/h 16mph /  25.7km/h 74.5% 0.00in /  0mm 0 W/m2
05:59 54.6 °F /  12.6 °C 46.8 °F /  8.2 °C 29.87in /  1011.4hPa WSW 3mph /  4.8km/h 16mph /  25.7km/h 75% 0.00in /  0mm 0 W/m2
06:04 54.6 °F /  12.6 °C 46.8 °F /  8.2 °C 29.87in /  1011.4hPa WSW 4.5mph /  7.2km/h 16mph /  25.7km/h 75% 0.00in /  0mm 0 W/m2
06:09 54.5 °F /  12.5 °C 46.8 °F /  8.2 °C 29.87in /  1011.4hPa WSW 4.3mph /  6.9km/h 13mph /  20.9km/h 75% 0.00in /  0mm 0 W/m2
06:14 54.5 °F /  12.5 °C 46.8 °F /  8.2 °C 29.88in /  1011.7hPa WSW 4mph /  6.4km/h 13mph /  20.9km/h 75.2% 0.00in /  0mm 0 W/m2
06:19 54.5 °F /  12.5 °C 47.1 °F /  8.4 °C 29.88in /  1011.7hPa WSW 4.4mph /  7.1km/h 13mph /  20.9km/h 76% 0.00in /  0mm 0 W/m2
06:24 54.5 °F /  12.5 °C 47.1 °F /  8.4 °C 29.87in /  1011.4hPa WSW 3.1mph /  5km/h 13mph /  20.9km/h 76% 0.00in /  0mm 0 W/m2
06:29 54.4 °F /  12.4 °C 47 °F /  8.3 °C 29.87in /  1011.4hPa WSW 4.7mph /  7.6km/h 13mph /  20.9km/h 76% 0.00in /  0mm 0 W/m2
06:34 54.5 °F /  12.5 °C 47.1 °F /  8.4 °C 29.87in /  1011.4hPa WSW 5.6mph /  9km/h 14mph /  22.5km/h 76% 0.00in /  0mm 0 W/m2
06:39 54.5 °F /  12.5 °C 47.1 °F /  8.4 °C 29.87in /  1011.4hPa WSW 5.2mph /  8.4km/h 14mph /  22.5km/h 76% 0.00in /  0mm 0 W/m2
06:44 54.6 °F /  12.6 °C 47.2 °F /  8.4 °C 29.88in /  1011.7hPa WSW 4.7mph /  7.6km/h 14mph /  22.5km/h 76% 0.00in /  0mm 0 W/m2
06:49 54.6 °F /  12.6 °C 47.2 °F /  8.4 °C 29.88in /  1011.7hPa WSW 4.6mph /  7.4km/h 14mph /  22.5km/h 76% 0.00in /  0mm 0 W/m2
06:54 54.6 °F /  12.6 °C 47.2 °F /  8.4 °C 29.88in /  1011.7hPa WSW 4.3mph /  6.9km/h 14mph /  22.5km/h 76% 0.00in /  0mm 0 W/m2
06:59 54.6 °F /  12.6 °C 47.2 °F /  8.4 °C 29.88in /  1011.7hPa WSW 4.2mph /  6.8km/h 14mph /  22.5km/h 76% 0.00in /  0mm 0 W/m2
07:04 54.6 °F /  12.6 °C 47.2 °F /  8.4 °C 29.88in /  1011.7hPa WSW 4.5mph /  7.2km/h 14mph /  22.5km/h 76% 0.00in /  0mm 0 W/m2
07:09 54.6 °F /  12.6 °C 47.2 °F /  8.4 °C 29.88in /  1011.7hPa WSW 3.9mph /  6.3km/h 10mph /  16.1km/h 76% 0.00in /  0mm 0 W/m2
07:14 54.5 °F /  12.5 °C 47.3 °F /  8.5 °C 29.88in /  1011.7hPa WSW 4.3mph /  6.9km/h 15mph /  24.1km/h 76.6% 0.00in /  0mm 5 W/m2
07:19 54.5 °F /  12.5 °C 47.4 °F /  8.6 °C 29.88in /  1011.7hPa WSW 2.9mph /  4.7km/h 15mph /  24.1km/h 76.8% 0.00in /  0mm 9 W/m2
07:24 54.6 °F /  12.6 °C 47.4 °F /  8.6 °C 29.88in /  1011.7hPa WSW 4.3mph /  6.9km/h 15mph /  24.1km/h 76.7% 0.00in /  0mm 16 W/m2
07:29 54.6 °F /  12.6 °C 47.6 °F /  8.7 °C 29.88in /  1011.7hPa WSW 3.3mph /  5.3km/h 15mph /  24.1km/h 77% 0.00in /  0mm 19 W/m2
07:34 54.7 °F /  12.6 °C 47.7 °F /  8.7 °C 29.88in /  1011.7hPa WSW 3.2mph /  5.1km/h 15mph /  24.1km/h 77% 0.00in /  0mm 26 W/m2
07:39 54.8 °F /  12.7 °C 47.8 °F /  8.8 °C 29.88in /  1011.7hPa WSW 4.1mph /  6.6km/h 14mph /  22.5km/h 77% 0.00in /  0mm 33 W/m2
07:44 55 °F /  12.8 °C 47.9 °F /  8.8 °C 29.89in /  1012.1hPa WSW 3.9mph /  6.3km/h 14mph /  22.5km/h 76.7% 0.00in /  0mm 39 W/m2
07:49 55.3 °F /  12.9 °C 47.8 °F /  8.8 °C 29.89in /  1012.1hPa West 2.2mph /  3.5km/h 14mph /  22.5km/h 76% 0.00in /  0mm 39 W/m2
07:54 55.5 °F /  13.1 °C 48.1 °F /  8.9 °C 29.89in /  1012.1hPa WSW 2.2mph /  3.5km/h 14mph /  22.5km/h 76% 0.00in /  0mm 47 W/m2
07:59 55.8 °F /  13.2 °C 48.4 °F /  9.1 °C 29.89in /  1012.1hPa West 2.4mph /  3.9km/h 16mph /  25.7km/h 76% 0.00in /  0mm 58 W/m2
08:09 56.5 °F /  13.6 °C 48.7 °F /  9.3 °C 29.89in /  1012.1hPa WSW 3.9mph /  6.3km/h 15mph /  24.1km/h 75% 0.00in /  0mm 60 W/m2
08:12 56.8 °F /  13.8 °C 49 °F /  9.4 °C 29.89in /  1012.1hPa West 1.6mph /  2.6km/h 15mph /  24.1km/h 75% 0.00in /  0mm 69 W/m2
08:30 57.9 °F /  14.4 °C 49.7 °F /  9.8 °C 29.90in /  1012.4hPa West 3mph /  4.8km/h 15mph /  24.1km/h 74% 0.00in /  0mm 75 W/m2
09:00 60 °F /  15.6 °C 50.6 °F /  10.3 °C 29.91in /  1012.8hPa Calm   4mph /  6.4km/h 71% 0.00in /  0mm 137 W/m2
09:30 61.1 °F /  16.2 °C 51.6 °F /  10.9 °C 29.92in /  1013.1hPa Calm     71% 0.00in /  0mm 159 W/m2
10:00 64.6 °F /  18.1 °C 53.4 °F /  11.9 °C 29.92in /  1013.1hPa Calm   1mph /  1.6km/h 67% 0.00in /  0mm 330 W/m2
10:30 66.7 °F /  19.3 °C 53.3 °F /  11.8 °C 29.92in /  1013.1hPa Calm   5mph /  8km/h 62% 0.00in /  0mm 309 W/m2
11:00 69.4 °F /  20.8 °C 54 °F /  12.2 °C 29.93in /  1013.4hPa Calm   3mph /  4.8km/h 58% 0.00in /  0mm 506 W/m2
11:30 71.4 °F /  21.9 °C 55.4 °F /  13 °C 29.92in /  1013.1hPa Calm   4mph /  6.4km/h 57% 0.00in /  0mm 335 W/m2
12:04 73.4 °F /  23 °C 56.4 °F /  13.6 °C 29.92in /  1013.1hPa WSW 0.5mph /  0.8km/h 1mph /  1.6km/h 55.3% 0.00in /  0mm 577 W/m2
12:09 73.5 °F /  23.1 °C 56.7 °F /  13.7 °C 29.92in /  1013.1hPa WNW 1.7mph /  2.7km/h 7mph /  11.3km/h 55.7% 0.00in /  0mm 577 W/m2
12:14 73.5 °F /  23.1 °C 56.2 °F /  13.4 °C 29.92in /  1013.1hPa WNW 3.1mph /  5km/h 10mph /  16.1km/h 54.7% 0.00in /  0mm 334 W/m2
12:19 73.4 °F /  23 °C 56.1 °F /  13.4 °C 29.92in /  1013.1hPa WNW 2.7mph /  4.3km/h 10mph /  16.1km/h 54.7% 0.00in /  0mm 171 W/m2
12:24 73.2 °F /  22.9 °C 56 °F /  13.3 °C 29.92in /  1013.1hPa WNW 1.1mph /  1.8km/h 10mph /  16.1km/h 54.8% 0.00in /  0mm 197 W/m2
12:29 73.1 °F /  22.8 °C 56.1 °F /  13.4 °C 29.91in /  1012.8hPa WNW 0.6mph /  1km/h 10mph /  16.1km/h 55.2% 0.00in /  0mm 244 W/m2
12:34 73.1 °F /  22.8 °C 56.2 °F /  13.4 °C 29.91in /  1012.8hPa WNW 0.3mph /  0.5km/h 10mph /  16.1km/h 55.3% 0.00in /  0mm 244 W/m2
12:39 73.2 °F /  22.9 °C 56.6 °F /  13.7 °C 29.91in /  1012.8hPa West 1.7mph /  2.7km/h 8mph /  12.9km/h 56% 0.00in /  0mm 591 W/m2
12:44 73.3 °F /  22.9 °C 56.5 °F /  13.6 °C 29.91in /  1012.8hPa West 2.2mph /  3.5km/h 10mph /  16.1km/h 55.7% 0.00in /  0mm 455 W/m2
12:49 73.3 °F /  22.9 °C 55.9 °F /  13.3 °C 29.91in /  1012.8hPa WSW 1.6mph /  2.6km/h 10mph /  16.1km/h 54.5% 0.00in /  0mm 267 W/m2
12:54 73.4 °F /  23 °C 56.8 °F /  13.8 °C 29.91in /  1012.8hPa WSW 0.8mph /  1.3km/h 10mph /  16.1km/h 56.1% 0.00in /  0mm 348 W/m2
12:59 73.5 °F /  23.1 °C 56.3 °F /  13.5 °C 29.91in /  1012.8hPa WNW 2.8mph /  4.5km/h 10mph /  16.1km/h 54.8% 0.00in /  0mm 113 W/m2
13:04 73.5 °F /  23.1 °C 56.2 °F /  13.4 °C 29.90in /  1012.4hPa WNW 2mph /  3.2km/h 10mph /  16.1km/h 54.7% 0.00in /  0mm 311 W/m2
13:09 73.6 °F /  23.1 °C 56.4 °F /  13.6 °C 29.90in /  1012.4hPa WNW 2.2mph /  3.5km/h 8mph /  12.9km/h 55% 0.00in /  0mm 199 W/m2
13:14 73.8 °F /  23.2 °C 56.4 °F /  13.6 °C 29.90in /  1012.4hPa WSW 2.9mph /  4.7km/h 8mph /  12.9km/h 54.5% 0.00in /  0mm 279 W/m2
13:19 74 °F /  23.3 °C 55.5 °F /  13.1 °C 29.90in /  1012.4hPa West 3.6mph /  5.8km/h 11mph /  17.7km/h 52.5% 0.00in /  0mm 279 W/m2
13:24 74.1 °F /  23.4 °C 55.7 °F /  13.2 °C 29.90in /  1012.4hPa West 1.6mph /  2.6km/h 11mph /  17.7km/h 52.7% 0.00in /  0mm 246 W/m2
13:29 74.2 °F /  23.4 °C 55.6 °F /  13.1 °C 29.90in /  1012.4hPa West 3.7mph /  6km/h 11mph /  17.7km/h 52.3% 0.00in /  0mm 142 W/m2
13:34 74.3 °F /  23.5 °C 55.4 °F /  13 °C 29.90in /  1012.4hPa WNW 3.9mph /  6.3km/h 11mph /  17.7km/h 51.7% 0.00in /  0mm 165 W/m2
13:39 74.3 °F /  23.5 °C 55.9 °F /  13.3 °C 29.90in /  1012.4hPa WSW 2.8mph /  4.5km/h 11mph /  17.7km/h 52.5% 0.00in /  0mm 425 W/m2
13:44 74.6 °F /  23.7 °C 55.7 °F /  13.2 °C 29.90in /  1012.4hPa West 3.8mph /  6.1km/h 12mph /  19.3km/h 51.8% 0.00in /  0mm 425 W/m2
13:49 74.7 °F /  23.7 °C 56.1 °F /  13.4 °C 29.90in /  1012.4hPa WNW 3.4mph /  5.5km/h 13mph /  20.9km/h 52.4% 0.00in /  0mm 229 W/m2
13:54 74.8 °F /  23.8 °C 55.6 °F /  13.1 °C 29.90in /  1012.4hPa West 2.5mph /  4km/h 13mph /  20.9km/h 51.3% 0.00in /  0mm 216 W/m2
13:59 74.9 °F /  23.8 °C 55.2 °F /  12.9 °C 29.90in /  1012.4hPa West 5.3mph /  8.5km/h 13mph /  20.9km/h 50.3% 0.00in /  0mm 211 W/m2
14:04 74.9 °F /  23.8 °C 55.6 °F /  13.1 °C 29.90in /  1012.4hPa West 3.2mph /  5.1km/h 15mph /  24.1km/h 51.1% 0.00in /  0mm 199 W/m2
14:09 75 °F /  23.9 °C 55.9 °F /  13.3 °C 29.90in /  1012.4hPa WNW 5.1mph /  8.2km/h 15mph /  24.1km/h 51.3% 0.00in /  0mm 241 W/m2
14:14 75 °F /  23.9 °C 55.2 °F /  12.9 °C 29.90in /  1012.4hPa WNW 4.8mph /  7.7km/h 15mph /  24.1km/h 50% 0.00in /  0mm 149 W/m2
14:19 75 °F /  23.9 °C 55.3 °F /  12.9 °C 29.90in /  1012.4hPa West 4.8mph /  7.7km/h 15mph /  24.1km/h 50.3% 0.00in /  0mm 197 W/m2
14:24 75.1 °F /  23.9 °C 55.8 °F /  13.2 °C 29.90in /  1012.4hPa West 3.3mph /  5.3km/h 15mph /  24.1km/h 51.2% 0.00in /  0mm 501 W/m2
14:29 75.3 °F /  24.1 °C 55.7 °F /  13.2 °C 29.90in /  1012.4hPa West 2.8mph /  4.5km/h 15mph /  24.1km/h 50.6% 0.00in /  0mm 501 W/m2
14:34 75.5 °F /  24.2 °C 55.4 °F /  13 °C 29.90in /  1012.4hPa WNW 3mph /  4.8km/h 15mph /  24.1km/h 49.8% 0.00in /  0mm 250 W/m2
14:39 75.5 °F /  24.2 °C 55.1 °F /  12.8 °C 29.90in /  1012.4hPa WNW 4mph /  6.4km/h 10mph /  16.1km/h 49.1% 0.00in /  0mm 120 W/m2
14:44 75.5 °F /  24.2 °C 55.3 °F /  12.9 °C 29.90in /  1012.4hPa WNW 3.1mph /  5km/h 10mph /  16.1km/h 49.5% 0.00in /  0mm 153 W/m2
14:49 75.7 °F /  24.3 °C 55.5 °F /  13.1 °C 29.90in /  1012.4hPa WNW 1.2mph /  1.9km/h 10mph /  16.1km/h 49.5% 0.00in /  0mm 105 W/m2
14:54 75.7 °F /  24.3 °C 55.7 °F /  13.2 °C 29.90in /  1012.4hPa West 0.7mph /  1.1km/h 10mph /  16.1km/h 49.8% 0.00in /  0mm 93 W/m2
14:59 75.8 °F /  24.3 °C 55.7 °F /  13.2 °C 29.90in /  1012.4hPa West 1.8mph /  2.9km/h 10mph /  16.1km/h 49.6% 0.00in /  0mm 91 W/m2
15:04 75.7 °F /  24.3 °C 55.6 °F /  13.1 °C 29.90in /  1012.4hPa WSW 0.7mph /  1.1km/h 10mph /  16.1km/h 49.7% 0.00in /  0mm 113 W/m2
15:09 75.4 °F /  24.1 °C 55.3 °F /  12.9 °C 29.90in /  1012.4hPa West 2.2mph /  3.5km/h 6mph /  9.7km/h 49.7% 0.00in /  0mm 113 W/m2
15:14 75 °F /  23.9 °C 55.5 °F /  13.1 °C 29.90in /  1012.4hPa WNW 0.4mph /  0.6km/h 6mph /  9.7km/h 50.6% 0.00in /  0mm 209 W/m2
15:19 75.1 °F /  23.9 °C 56.4 °F /  13.6 °C 29.90in /  1012.4hPa West 0.6mph /  1km/h 6mph /  9.7km/h 52.3% 0.00in /  0mm 244 W/m2
15:24 75.4 °F /  24.1 °C 55.9 °F /  13.3 °C 29.90in /  1012.4hPa WNW 2.2mph /  3.5km/h 6mph /  9.7km/h 50.8% 0.00in /  0mm 462 W/m2
15:29 75.8 °F /  24.3 °C 55.8 °F /  13.2 °C 29.90in /  1012.4hPa WNW 1.5mph /  2.4km/h 6mph /  9.7km/h 50% 0.00in /  0mm 367 W/m2
15:34 76.1 °F /  24.5 °C 55.6 °F /  13.1 °C 29.91in /  1012.8hPa WNW 1.6mph /  2.6km/h 6mph /  9.7km/h 49% 0.00in /  0mm 281 W/m2
15:39 76.1 °F /  24.5 °C 55.3 °F /  12.9 °C 29.90in /  1012.4hPa West 2.2mph /  3.5km/h 6mph /  9.7km/h 48.5% 0.00in /  0mm 109 W/m2
15:44 76 °F /  24.4 °C 54.9 °F /  12.7 °C 29.90in /  1012.4hPa West 3.7mph /  6km/h 9mph /  14.5km/h 48% 0.00in /  0mm 98 W/m2
15:49 75.9 °F /  24.4 °C 54.7 °F /  12.6 °C 29.90in /  1012.4hPa WNW 1.6mph /  2.6km/h 9mph /  14.5km/h 47.8% 0.00in /  0mm 86 W/m2
15:54 75.8 °F /  24.3 °C 55 °F /  12.8 °C 29.90in /  1012.4hPa WNW 0.1mph /  0.2km/h 9mph /  14.5km/h 48.5% 0.00in /  0mm 63 W/m2
15:59 75.7 °F /  24.3 °C 55.6 °F /  13.1 °C 29.90in /  1012.4hPa WNW 1.2mph /  1.9km/h 9mph /  14.5km/h 49.6% 0.00in /  0mm 46 W/m2
16:00 75.7 °F /  24.3 °C 55.2 °F /  12.9 °C 29.90in /  1012.4hPa West 5mph /  8km/h 9mph /  14.5km/h 49% 0.00in /  0mm 35 W/m2
16:09 75.4 °F /  24.1 °C 54 °F /  12.2 °C 29.90in /  1012.4hPa WNW 4mph /  6.4km/h 11mph /  17.7km/h 47.3% 0.00in /  0mm 32 W/m2
16:14 75.3 °F /  24.1 °C 53.9 °F /  12.2 °C 29.90in /  1012.4hPa WNW 1.4mph /  2.3km/h 11mph /  17.7km/h 47.3% 0.00in /  0mm 30 W/m2
16:19 75.1 °F /  23.9 °C 54.2 °F /  12.3 °C 29.90in /  1012.4hPa WNW 2.3mph /  3.7km/h 11mph /  17.7km/h 48.2% 0.00in /  0mm 30 W/m2
16:24 74.9 °F /  23.8 °C 54.1 °F /  12.3 °C 29.90in /  1012.4hPa WNW 2.9mph /  4.7km/h 11mph /  17.7km/h 48.4% 0.00in /  0mm 28 W/m2
16:29 74.8 °F /  23.8 °C 54.3 °F /  12.4 °C 29.90in /  1012.4hPa West 1.6mph /  2.6km/h 11mph /  17.7km/h 48.9% 0.00in /  0mm 28 W/m2
16:34 74.7 °F /  23.7 °C 54.1 °F /  12.3 °C 29.90in /  1012.4hPa WNW 4mph /  6.4km/h 11mph /  17.7km/h 48.7% 0.00in /  0mm 26 W/m2
16:39 74.6 °F /  23.7 °C 53.9 °F /  12.2 °C 29.90in /  1012.4hPa WNW 2.5mph /  4km/h 10mph /  16.1km/h 48.5% 0.00in /  0mm 26 W/m2
16:44 74.5 °F /  23.6 °C 53.9 °F /  12.2 °C 29.90in /  1012.4hPa WNW 3.5mph /  5.6km/h 10mph /  16.1km/h 48.6% 0.00in /  0mm 25 W/m2
16:49 74.3 °F /  23.5 °C 53.7 °F /  12.1 °C 29.91in /  1012.8hPa WNW 3.5mph /  5.6km/h 10mph /  16.1km/h 48.5% 0.00in /  0mm 25 W/m2
16:54 74.2 °F /  23.4 °C 53.5 °F /  11.9 °C 29.91in /  1012.8hPa WNW 2.5mph /  4km/h 10mph /  16.1km/h 48.5% 0.00in /  0mm 23 W/m2
16:59 74 °F /  23.3 °C 53.4 °F /  11.9 °C 29.91in /  1012.8hPa WNW 1.6mph /  2.6km/h 10mph /  16.1km/h 48.5% 0.00in /  0mm 23 W/m2
17:04 73.9 °F /  23.3 °C 54 °F /  12.2 °C 29.90in /  1012.4hPa WNW 1.7mph /  2.7km/h 10mph /  16.1km/h 49.9% 0.00in /  0mm 21 W/m2
17:09 73.7 °F /  23.2 °C 53.7 °F /  12.1 °C 29.90in /  1012.4hPa WNW 1.4mph /  2.3km/h 6mph /  9.7km/h 49.5% 0.00in /  0mm 21 W/m2
17:14 73.6 °F /  23.1 °C 53.9 °F /  12.2 °C 29.91in /  1012.8hPa WSW 1.4mph /  2.3km/h 8mph /  12.9km/h 50.2% 0.00in /  0mm 19 W/m2
17:19 73.3 °F /  22.9 °C 53.9 °F /  12.2 °C 29.91in /  1012.8hPa West 1.6mph /  2.6km/h 11mph /  17.7km/h 50.5% 0.00in /  0mm 19 W/m2
17:24 73.1 °F /  22.8 °C 53.8 °F /  12.1 °C 29.91in /  1012.8hPa WNW 0.2mph /  0.3km/h 11mph /  17.7km/h 50.8% 0.00in /  0mm 18 W/m2
17:29 73 °F /  22.8 °C 53.5 °F /  11.9 °C 29.91in /  1012.8hPa WNW 0.6mph /  1km/h 11mph /  17.7km/h 50.4% 0.00in /  0mm 16 W/m2
17:34 72.8 °F /  22.7 °C 53.4 °F /  11.9 °C 29.91in /  1012.8hPa WNW 0.1mph /  0.2km/h 11mph /  17.7km/h 50.5% 0.00in /  0mm 16 W/m2
17:39 72.6 °F /  22.6 °C 53.4 °F /  11.9 °C 29.91in /  1012.8hPa WNW 0.2mph /  0.3km/h 3mph /  4.8km/h 51% 0.00in /  0mm 14 W/m2
17:44 72.3 °F /  22.4 °C 53.2 °F /  11.8 °C 29.91in /  1012.8hPa West 0.1mph /  0.2km/h 4mph /  6.4km/h 51% 0.00in /  0mm 11 W/m2
17:49 72 °F /  22.2 °C 53.2 °F /  11.8 °C 29.91in /  1012.8hPa Calm   4mph /  6.4km/h 51.6% 0.00in /  0mm 9 W/m2
17:54 71.7 °F /  22.1 °C 53.2 °F /  11.8 °C 29.91in /  1012.8hPa Calm   4mph /  6.4km/h 52% 0.00in /  0mm 5 W/m2
17:59 71.4 °F /  21.9 °C 53.3 °F /  11.8 °C 29.91in /  1012.8hPa Calm   4mph /  6.4km/h 52.8% 0.00in /  0mm 5 W/m2
18:04 71.1 °F /  21.7 °C 53.4 °F /  11.9 °C 29.91in /  1012.8hPa Calm   4mph /  6.4km/h 53.5% 0.00in /  0mm 0 W/m2
18:09 70.7 °F /  21.5 °C 53.3 °F /  11.8 °C 29.91in /  1012.8hPa Calm     54% 0.00in /  0mm 0 W/m2
18:14 70.3 °F /  21.3 °C 52.9 °F /  11.6 °C 29.92in /  1013.1hPa Calm     54% 0.00in /  0mm 0 W/m2
18:19 70 °F /  21.1 °C 52.8 °F /  11.6 °C 29.92in /  1013.1hPa Calm     54.5% 0.00in /  0mm 0 W/m2
18:24 69.6 °F /  20.9 °C 53.1 °F /  11.7 °C 29.92in /  1013.1hPa Calm     55.7% 0.00in /  0mm 0 W/m2
18:29 69.2 °F /  20.7 °C 53.3 °F /  11.8 °C 29.92in /  1013.1hPa Calm     56.9% 0.00in /  0mm 0 W/m2
18:34 68.8 °F /  20.4 °C 53.5 °F /  11.9 °C 29.92in /  1013.1hPa Calm     58.2% 0.00in /  0mm 0 W/m2
18:39 68.4 °F /  20.2 °C 53.1 °F /  11.7 °C 29.92in /  1013.1hPa Calm     58.3% 0.00in /  0mm 0 W/m2
18:44 67.9 °F /  19.9 °C 53.3 °F /  11.8 °C 29.92in /  1013.1hPa Calm     59.4% 0.00in /  0mm 0 W/m2
18:49 67.5 °F /  19.7 °C 53.3 °F /  11.8 °C 29.92in /  1013.1hPa Calm     60.3% 0.00in /  0mm 0 W/m2
18:54 67.1 °F /  19.5 °C 53.5 °F /  11.9 °C 29.92in /  1013.1hPa Calm     61.7% 0.00in /  0mm 0 W/m2
18:59 66.7 °F /  19.3 °C 53.3 °F /  11.8 °C 29.92in /  1013.1hPa Calm     62% 0.00in /  0mm 0 W/m2
19:04 66.5 °F /  19.2 °C 53.2 °F /  11.8 °C 29.93in /  1013.4hPa Calm     62.3% 0.00in /  0mm 0 W/m2
19:09 66.2 °F /  19 °C 53.2 °F /  11.8 °C 29.93in /  1013.4hPa Calm     63% 0.00in /  0mm 0 W/m2
19:14 66 °F /  18.9 °C 53.5 °F /  11.9 °C 29.93in /  1013.4hPa Calm     64% 0.00in /  0mm 0 W/m2
19:19 65.8 °F /  18.8 °C 53.5 °F /  11.9 °C 29.93in /  1013.4hPa Calm     64.4% 0.00in /  0mm 0 W/m2
19:24 65.7 °F /  18.7 °C 53.4 °F /  11.9 °C 29.93in /  1013.4hPa Calm     64.6% 0.00in /  0mm 0 W/m2
19:29 65.6 °F /  18.7 °C 53.5 °F /  11.9 °C 29.94in /  1013.8hPa Calm     65% 0.00in /  0mm 0 W/m2
19:34 65.4 °F /  18.6 °C 53.6 °F /  12 °C 29.93in /  1013.4hPa Calm     65.4% 0.00in /  0mm 0 W/m2
19:39 65.3 °F /  18.5 °C 53.8 °F /  12.1 °C 29.94in /  1013.8hPa Calm     66.3% 0.00in /  0mm 0 W/m2
19:44 65 °F /  18.3 °C 53.8 °F /  12.1 °C 29.94in /  1013.8hPa Calm   1mph /  1.6km/h 67% 0.00in /  0mm 0 W/m2
19:49 64.8 °F /  18.2 °C 53.6 °F /  12 °C 29.94in /  1013.8hPa Calm   1mph /  1.6km/h 67% 0.00in /  0mm 0 W/m2
19:54 64.6 °F /  18.1 °C 53.4 °F /  11.9 °C 29.93in /  1013.4hPa Calm   1mph /  1.6km/h 67% 0.00in /  0mm 0 W/m2
19:59 64.3 °F /  17.9 °C 53.6 °F /  12 °C 29.93in /  1013.4hPa Calm   1mph /  1.6km/h 68% 0.00in /  0mm 0 W/m2
20:00 64.3 °F /  17.9 °C 53.9 °F /  12.2 °C 29.93in /  1013.4hPa Calm   1mph /  1.6km/h 69% 0.00in /  0mm 0 W/m2
20:09 64 °F /  17.8 °C 54 °F /  12.2 °C 29.94in /  1013.8hPa Calm     70% 0.00in /  0mm 0 W/m2
20:14 63.8 °F /  17.7 °C 54 °F /  12.2 °C 29.93in /  1013.4hPa Calm     70.5% 0.00in /  0mm 0 W/m2
20:19 63.6 °F /  17.6 °C 54.1 °F /  12.3 °C 29.94in /  1013.8hPa Calm     71% 0.00in /  0mm 0 W/m2
20:24 63.5 °F /  17.5 °C 53.9 °F /  12.2 °C 29.93in /  1013.4hPa Calm   1mph /  1.6km/h 71% 0.00in /  0mm 0 W/m2
20:29 63.4 °F /  17.4 °C 54 °F /  12.2 °C 29.94in /  1013.8hPa Calm   1mph /  1.6km/h 71.4% 0.00in /  0mm 0 W/m2
20:34 63.3 °F /  17.4 °C 54.1 °F /  12.3 °C 29.94in /  1013.8hPa Calm   1mph /  1.6km/h 72% 0.00in /  0mm 0 W/m2
20:39 63.3 °F /  17.4 °C 54.5 °F /  12.5 °C 29.94in /  1013.8hPa Calm     73% 0.00in /  0mm 0 W/m2
20:44 63.4 °F /  17.4 °C 54.6 °F /  12.6 °C 29.94in /  1013.8hPa Calm     73% 0.00in /  0mm 0 W/m2
20:49 63.4 °F /  17.4 °C 54.9 °F /  12.7 °C 29.94in /  1013.8hPa Calm     73.8% 0.00in /  0mm 0 W/m2
20:54 63.4 °F /  17.4 °C 55 °F /  12.8 °C 29.94in /  1013.8hPa West 0.2mph /  0.3km/h 2mph /  3.2km/h 74% 0.00in /  0mm 0 W/m2
20:59 63.5 °F /  17.5 °C 55.1 °F /  12.8 °C 29.94in /  1013.8hPa West 0.1mph /  0.2km/h 2mph /  3.2km/h 74% 0.00in /  0mm 0 W/m2
21:04 63.5 °F /  17.5 °C 55.1 °F /  12.8 °C 29.94in /  1013.8hPa Calm   2mph /  3.2km/h 74% 0.00in /  0mm 0 W/m2
21:09 63.6 °F /  17.6 °C 55.3 °F /  12.9 °C 29.94in /  1013.8hPa Calm     74.5% 0.00in /  0mm 0 W/m2
21:14 63.6 °F /  17.6 °C 55.5 °F /  13.1 °C 29.94in /  1013.8hPa Calm     75% 0.00in /  0mm 0 W/m2
21:19 63.7 °F /  17.6 °C 55.6 °F /  13.1 °C 29.94in /  1013.8hPa Calm     75% 0.00in /  0mm 0 W/m2
21:24 63.8 °F /  17.7 °C 55.4 °F /  13 °C 29.95in /  1014.1hPa Calm     74.2% 0.00in /  0mm 0 W/m2
21:29 63.8 °F /  17.7 °C 55.4 °F /  13 °C 29.95in /  1014.1hPa Calm     74% 0.00in /  0mm 0 W/m2
21:34 63.8 °F /  17.7 °C 55.4 °F /  13 °C 29.95in /  1014.1hPa Calm   1mph /  1.6km/h 74% 0.00in /  0mm 0 W/m2
21:39 63.8 °F /  17.7 °C 55.4 °F /  13 °C 29.95in /  1014.1hPa Calm   1mph /  1.6km/h 74% 0.00in /  0mm 0 W/m2
21:44 63.9 °F /  17.7 °C 55.3 °F /  12.9 °C 29.95in /  1014.1hPa Calm   1mph /  1.6km/h 73.6% 0.00in /  0mm 0 W/m2
21:49 63.9 °F /  17.7 °C 55.1 °F /  12.8 °C 29.95in /  1014.1hPa Calm   1mph /  1.6km/h 73% 0.00in /  0mm 0 W/m2
21:54 64 °F /  17.8 °C 55.2 °F /  12.9 °C 29.95in /  1014.1hPa Calm   1mph /  1.6km/h 73% 0.00in /  0mm 0 W/m2
21:59 64.1 °F /  17.8 °C 55.1 °F /  12.8 °C 29.95in /  1014.1hPa Calm   1mph /  1.6km/h 72.7% 0.00in /  0mm 0 W/m2
22:04 64.1 °F /  17.8 °C 54.9 °F /  12.7 °C 29.95in /  1014.1hPa Calm   1mph /  1.6km/h 72% 0.00in /  0mm 0 W/m2
22:09 64.1 °F /  17.8 °C 54.9 °F /  12.7 °C 29.96in /  1014.4hPa Calm     72% 0.00in /  0mm 0 W/m2
22:14 64.1 °F /  17.8 °C 54.9 °F /  12.7 °C 29.96in /  1014.4hPa Calm     72% 0.00in /  0mm 0 W/m2
22:19 64 °F /  17.8 °C 54.8 °F /  12.7 °C 29.96in /  1014.4hPa Calm     72% 0.00in /  0mm 0 W/m2
22:24 64 °F /  17.8 °C 54.8 °F /  12.7 °C 29.96in /  1014.4hPa Calm     72% 0.00in /  0mm 0 W/m2
22:29 64 °F /  17.8 °C 54.8 °F /  12.7 °C 29.96in /  1014.4hPa Calm     72% 0.00in /  0mm 0 W/m2
22:34 63.9 °F /  17.7 °C 54.7 °F /  12.6 °C 29.96in /  1014.4hPa Calm     72% 0.00in /  0mm 0 W/m2
22:39 63.9 °F /  17.7 °C 54.7 °F /  12.6 °C 29.96in /  1014.4hPa Calm     72% 0.00in /  0mm 0 W/m2
22:44 63.8 °F /  17.7 °C 54.9 °F /  12.7 °C 29.96in /  1014.4hPa Calm     72.6% 0.00in /  0mm 0 W/m2
22:49 63.8 °F /  17.7 °C 55.2 °F /  12.9 °C 29.96in /  1014.4hPa Calm     73.7% 0.00in /  0mm 0 W/m2
22:54 63.6 °F /  17.6 °C 55.2 °F /  12.9 °C 29.96in /  1014.4hPa Calm     74% 0.00in /  0mm 0 W/m2
22:59 63.4 °F /  17.4 °C 54.6 °F /  12.6 °C 29.96in /  1014.4hPa Calm     73% 0.00in /  0mm 0 W/m2
23:04 63.2 °F /  17.3 °C 54.5 °F /  12.5 °C 29.96in /  1014.4hPa Calm     73% 0.00in /  0mm 0 W/m2
23:09 63.1 °F /  17.3 °C 54.3 °F /  12.4 °C 29.96in /  1014.4hPa Calm     73% 0.00in /  0mm 0 W/m2
23:14 63 °F /  17.2 °C 54.2 °F /  12.3 °C 29.96in /  1014.4hPa Calm     73% 0.00in /  0mm 0 W/m2
23:19 62.8 °F /  17.1 °C 54.1 °F /  12.3 °C 29.96in /  1014.4hPa Calm     73% 0.00in /  0mm 0 W/m2
23:24 62.7 °F /  17.1 °C 53.9 °F /  12.2 °C 29.96in /  1014.4hPa Calm     73% 0.00in /  0mm 0 W/m2
23:29 62.6 °F /  17 °C 53.8 °F /  12.1 °C 29.96in /  1014.4hPa Calm     73% 0.00in /  0mm 0 W/m2
23:34 62.4 °F /  16.9 °C 53.7 °F /  12.1 °C 29.96in /  1014.4hPa Calm     73% 0.00in /  0mm 0 W/m2
23:39 62.3 °F /  16.8 °C 53.6 °F /  12 °C 29.96in /  1014.4hPa Calm     73% 0.00in /  0mm 0 W/m2
23:44 62.3 °F /  16.8 °C 53.5 °F /  11.9 °C 29.96in /  1014.4hPa Calm     73% 0.00in /  0mm 0 W/m2
23:49 62.2 °F /  16.8 °C 53.5 °F /  11.9 °C 29.96in /  1014.4hPa Calm     73% 0.00in /  0mm 0 W/m2
23:54 62.1 °F /  16.7 °C 53.4 °F /  11.9 °C 29.96in /  1014.4hPa Calm     73% 0.00in /  0mm 0 W/m2
23:59 62.2 °F /  16.8 °C 53.6 °F /  12 °C 29.96in /  1014.4hPa West 0.1mph /  0.2km/h 3mph /  4.8km/h 73.5% 0.00in /  0mm 0 W/m2
Hartford County Weather
Compliments of Weather Underground - 4 mb